createdAt,value
2022-10-01T00:01:08.921Z,2.80
2022-10-01T00:06:17.166Z,3.08
2022-10-01T00:11:21.964Z,2.80
2022-10-01T00:16:26.982Z,2.60
2022-10-01T00:21:33.245Z,2.80
2022-10-01T00:26:37.647Z,2.55
2022-10-01T00:31:40.651Z,2.88
2022-10-01T00:36:45.203Z,3.33
2022-10-01T00:41:48.011Z,3.30
2022-10-01T00:46:51.340Z,3.28
2022-10-01T00:51:58.986Z,3.17
2022-10-01T00:57:04.605Z,2.93
2022-10-01T01:02:07.463Z,3.30
2022-10-01T01:07:12.762Z,3.78
2022-10-01T01:12:27.656Z,3.58
2022-10-01T01:17:36.202Z,4.15
2022-10-01T01:22:48.946Z,4.15
2022-10-01T01:28:05.376Z,3.70
2022-10-01T01:33:14.012Z,3.60
2022-10-01T01:38:21.862Z,3.58
2022-10-01T01:43:31.285Z,3.47
2022-10-01T01:48:36.376Z,3.28
2022-10-01T01:53:39.485Z,3.50
2022-10-01T01:58:44.089Z,3.20
2022-10-01T02:03:46.840Z,3.45
2022-10-01T02:08:57.284Z,3.38
2022-10-01T02:14:13.329Z,3.13
2022-10-01T02:19:24.854Z,3.10
2022-10-01T02:24:38.430Z,3.22
2022-10-01T02:29:46.107Z,3.33
2022-10-01T02:34:51.083Z,3.33
2022-10-01T02:39:56.490Z,3.30
2022-10-01T02:45:02.676Z,3.17
2022-10-01T02:50:07.559Z,3.30
2022-10-01T02:55:13.231Z,3.20
2022-10-01T03:00:21.630Z,3.35
2022-10-01T03:10:27.133Z,3.10
2022-10-01T03:15:31.260Z,3.20
2022-10-01T03:20:34.038Z,3.45
2022-10-01T03:25:36.822Z,3.22
2022-10-01T03:30:40.904Z,3.40
2022-10-01T03:35:43.703Z,2.92
2022-10-01T03:40:46.836Z,2.88
2022-10-01T03:45:51.091Z,2.80
2022-10-01T03:50:55.597Z,2.83
2022-10-01T03:55:58.612Z,2.78
2022-10-01T04:01:03.098Z,2.95
2022-10-01T04:06:06.002Z,3.15
2022-10-01T04:11:09.318Z,3.13
2022-10-01T04:16:13.695Z,3.28
2022-10-01T04:21:16.573Z,3.97
2022-10-01T04:26:19.880Z,4.03
2022-10-01T04:31:26.949Z,4.03
2022-10-01T04:36:31.607Z,3.95
2022-10-01T04:41:34.622Z,3.60
2022-10-01T04:46:39.921Z,4.07
2022-10-01T04:51:42.766Z,3.70
2022-10-01T04:56:45.569Z,3.80
2022-10-01T05:01:49.805Z,3.72
2022-10-01T05:06:52.607Z,3.75
2022-10-01T05:11:55.721Z,4.05
2022-10-01T05:16:59.896Z,3.80
2022-10-01T05:22:02.777Z,4.53
2022-10-01T05:27:13.308Z,4.20
2022-10-01T05:32:17.779Z,4.03
2022-10-01T05:37:20.610Z,3.83
2022-10-01T05:42:23.411Z,4.03
2022-10-01T05:47:27.577Z,4.15
2022-10-01T05:52:30.870Z,3.85
2022-10-01T05:57:34.301Z,3.60
2022-10-01T06:02:41.301Z,4.25
2022-10-01T06:07:44.222Z,3.83
2022-10-01T06:12:48.485Z,3.85
2022-10-01T06:17:52.574Z,3.70
2022-10-01T06:22:57.002Z,4.07
2022-10-01T06:28:00.883Z,3.63
2022-10-01T06:33:06.959Z,4.40
2022-10-01T06:38:10.478Z,3.80
2022-10-01T06:43:13.309Z,4.07
2022-10-01T06:48:19.937Z,4.18
2022-10-01T06:53:22.761Z,3.80
2022-10-01T06:58:27.226Z,3.95
2022-10-01T07:03:32.108Z,3.72
2022-10-01T07:08:44.151Z,3.38
2022-10-01T07:13:50.042Z,3.47
2022-10-01T07:18:57.879Z,3.80
2022-10-01T07:24:00.876Z,3.30
2022-10-01T07:29:04.636Z,3.60
2022-10-01T07:34:08.978Z,3.55
2022-10-01T07:39:12.225Z,3.60
2022-10-01T07:44:15.016Z,3.70
2022-10-01T07:49:19.388Z,3.83
2022-10-01T07:54:25.292Z,4.10
2022-10-01T07:59:28.536Z,3.65
2022-10-01T08:04:50.369Z,3.28
2022-10-01T08:09:53.337Z,3.08
2022-10-01T08:14:56.824Z,3.05
2022-10-01T08:20:01.364Z,3.10
2022-10-01T08:25:04.700Z,3.25
2022-10-01T08:30:09.035Z,2.30
2022-10-01T08:35:13.523Z,2.15
2022-10-01T08:40:17.401Z,2.20
2022-10-01T08:45:26.635Z,2.30
2022-10-01T08:50:48.211Z,2.50
2022-10-01T08:55:53.047Z,3.45
2022-10-01T09:00:55.878Z,3.38
2022-10-01T09:06:11.941Z,4.22
2022-10-01T09:11:29.265Z,4.32
2022-10-01T09:16:39.200Z,4.05
2022-10-01T09:21:56.507Z,3.88
2022-10-01T09:26:59.326Z,3.97
2022-10-01T09:32:06.306Z,5.13
2022-10-01T09:37:20.130Z,5.18
2022-10-01T09:42:27.474Z,6.28
2022-10-01T09:47:34.333Z,7.57
2022-10-01T09:52:40.760Z,7.40
2022-10-01T09:57:48.693Z,6.28
2022-10-01T10:02:54.112Z,7.10
2022-10-01T10:08:01.892Z,6.90
2022-10-01T10:13:18.376Z,6.30
2022-10-01T10:18:29.029Z,5.35
2022-10-01T10:23:34.289Z,4.85
2022-10-01T10:28:44.087Z,5.25
2022-10-01T10:33:51.144Z,5.05
2022-10-01T10:38:56.825Z,4.68
2022-10-01T10:44:03.687Z,4.88
2022-10-01T10:49:14.020Z,4.20
2022-10-01T10:54:29.217Z,5.07
2022-10-01T10:59:34.255Z,4.20
2022-10-01T11:04:43.853Z,4.47
2022-10-01T11:10:05.262Z,4.72
2022-10-01T11:15:21.757Z,4.25
2022-10-01T11:20:37.025Z,4.30
2022-10-01T11:25:49.184Z,4.53
2022-10-01T11:30:59.745Z,4.30
2022-10-01T11:36:06.755Z,3.80
2022-10-01T11:41:30.676Z,3.40
2022-10-01T11:46:42.552Z,3.70
2022-10-01T11:51:53.903Z,2.92
2022-10-01T11:57:25.986Z,2.45
2022-10-01T12:02:36.727Z,2.63
2022-10-01T12:07:47.531Z,2.20
2022-10-01T12:12:57.851Z,1.90
2022-10-01T12:18:07.090Z,1.83
2022-10-01T12:23:17.876Z,2.00
2022-10-01T12:28:27.694Z,2.15
2022-10-01T12:33:48.994Z,2.00
2022-10-01T12:39:05.923Z,1.90
2022-10-01T12:44:30.061Z,1.70
2022-10-01T12:49:38.374Z,1.35
2022-10-01T12:55:02.559Z,1.23
2022-10-01T13:00:12.373Z,0.90
2022-10-01T13:05:23.951Z,1.20
2022-10-01T13:10:48.729Z,1.27
2022-10-01T13:15:59.788Z,1.90
2022-10-01T13:21:10.211Z,1.40
2022-10-01T13:26:18.290Z,1.77
2022-10-01T13:31:35.040Z,1.60
2022-10-01T13:36:38.347Z,1.45
2022-10-01T13:41:41.361Z,1.20
2022-10-01T13:46:53.169Z,3.03
2022-10-01T13:51:56.940Z,1.02
2022-10-01T13:57:09.131Z,1.50
2022-10-01T14:02:32.027Z,1.45
2022-10-01T14:07:40.303Z,1.52
2022-10-01T14:13:03.640Z,1.50
2022-10-01T14:18:15.525Z,1.92
2022-10-01T14:23:24.588Z,1.40
2022-10-01T14:28:38.200Z,3.67
2022-10-01T14:33:59.775Z,2.00
2022-10-01T14:39:14.160Z,1.80
2022-10-01T14:44:21.892Z,1.83
2022-10-01T14:49:28.396Z,1.63
2022-10-01T14:54:35.778Z,1.55
2022-10-01T14:59:41.714Z,1.50
2022-10-01T15:04:48.256Z,1.50
2022-10-01T15:09:52.353Z,1.35
2022-10-01T15:14:55.774Z,1.33
2022-10-01T15:20:00.270Z,1.58
2022-10-01T15:25:03.510Z,1.58
2022-10-01T15:30:14.775Z,1.63
2022-10-01T15:35:22.033Z,2.03
2022-10-01T15:40:29.533Z,2.00
2022-10-01T15:45:32.313Z,4.63
2022-10-01T15:50:39.158Z,2.53
2022-10-01T15:55:44.466Z,3.15
2022-10-01T16:00:58.570Z,2.65
2022-10-01T16:06:04.038Z,2.20
2022-10-01T16:11:17.820Z,2.30
2022-10-01T16:16:27.183Z,2.58
2022-10-01T16:21:41.252Z,2.20
2022-10-01T16:26:45.187Z,1.30
2022-10-01T16:31:48.128Z,1.50
2022-10-01T16:36:52.340Z,1.20
2022-10-01T16:42:19.118Z,1.92
2022-10-01T16:47:17.966Z,1.90
2022-10-01T16:52:22.162Z,1.65
2022-10-01T16:57:24.846Z,2.45
2022-10-01T17:02:27.731Z,1.70
2022-10-01T17:07:31.844Z,2.75
2022-10-01T17:12:34.870Z,1.90
2022-10-01T17:17:37.692Z,1.98
2022-10-01T17:22:42.840Z,2.00
2022-10-01T17:27:45.792Z,2.10
2022-10-01T17:32:48.650Z,2.05
2022-10-01T17:37:52.847Z,2.47
2022-10-01T17:42:55.581Z,2.00
2022-10-01T17:47:58.319Z,2.40
2022-10-01T17:53:02.719Z,2.90
2022-10-01T17:58:06.723Z,3.78
2022-10-01T18:03:09.782Z,4.35
2022-10-01T18:08:13.910Z,5.32
2022-10-01T18:13:16.935Z,2.97
2022-10-01T18:19:51.342Z,3.63
2022-10-01T18:23:44.029Z,2.20
2022-10-01T18:28:47.196Z,2.30
2022-10-01T18:33:52.321Z,2.78
2022-10-01T18:39:04.275Z,2.83
2022-10-01T18:44:11.285Z,4.50
2022-10-01T18:49:28.098Z,3.25
2022-10-01T18:54:47.299Z,3.03
2022-10-01T19:00:02.541Z,2.85
2022-10-01T19:05:36.424Z,3.05
2022-10-01T19:10:43.034Z,5.82
2022-10-01T19:16:00.498Z,3.95
2022-10-01T19:21:15.195Z,3.65
2022-10-01T19:26:24.902Z,2.90
2022-10-01T19:31:37.310Z,4.20
2022-10-01T19:36:45.301Z,3.78
2022-10-01T19:41:54.247Z,3.05
2022-10-01T19:47:03.089Z,2.85
2022-10-01T19:52:13.336Z,2.72
2022-10-01T19:57:23.402Z,3.30
2022-10-01T20:02:35.147Z,2.45
2022-10-01T20:07:46.780Z,2.75
2022-10-01T20:13:13.556Z,2.35
2022-10-01T20:18:28.961Z,2.95
2022-10-01T20:23:42.025Z,3.35
2022-10-01T20:28:54.579Z,2.83
2022-10-01T20:34:03.863Z,3.30
2022-10-01T20:39:15.765Z,2.40
2022-10-01T20:44:25.615Z,2.38
2022-10-01T20:49:33.485Z,2.85
2022-10-01T20:54:40.033Z,2.25
2022-10-01T20:59:46.932Z,2.65
2022-10-01T21:04:55.219Z,2.53
2022-10-01T21:10:03.053Z,2.95
2022-10-01T21:15:13.458Z,5.90
2022-10-01T21:20:30.530Z,3.22
2022-10-01T21:25:47.311Z,3.80
2022-10-01T21:31:02.958Z,2.30
2022-10-01T21:36:11.907Z,2.30
2022-10-01T21:41:48.188Z,2.08
2022-10-01T21:47:00.751Z,2.40
2022-10-01T21:52:13.838Z,2.20
2022-10-01T21:57:43.282Z,3.20
2022-10-01T22:02:59.956Z,2.60
2022-10-01T22:08:16.080Z,2.70
2022-10-01T22:13:21.785Z,2.97
2022-10-01T22:18:35.247Z,2.80
2022-10-01T22:23:39.219Z,2.38
2022-10-01T22:28:45.006Z,2.65
2022-10-01T22:33:55.341Z,3.15
2022-10-01T22:39:03.261Z,2.33
2022-10-01T22:44:13.740Z,2.80
2022-10-01T22:49:32.175Z,3.33
2022-10-01T22:54:45.246Z,3.03
2022-10-01T23:00:01.838Z,3.15
2022-10-01T23:05:16.785Z,3.20
2022-10-01T23:10:26.102Z,3.35
2022-10-01T23:15:37.301Z,3.00
2022-10-01T23:20:50.706Z,2.97
2022-10-01T23:26:08.609Z,3.40
2022-10-01T23:31:21.758Z,2.87
2022-10-01T23:36:36.442Z,3.95
2022-10-01T23:41:44.839Z,3.30
2022-10-01T23:46:52.124Z,3.13
2022-10-01T23:52:04.357Z,3.60
2022-10-01T23:57:12.624Z,3.05
